Time;durP1;ratioP1;P1;durP2;ratioP2;P2;SDS_P1;SDS_P2;PMS_P1;PMS_P2;Temp;Humidity;BMP_temperature;BMP_pressure;BME280_temperature;BME280_humidity;BME280_pressure;Samples;Min_cycle;Max_cycle;Signal;HPM_P1;HPM_P2
2023/04/22 00:00:53;;;;;;;0.55;0.50;;;;;;;19.21;40.98;100704.78;16109318;19;131649;-40
2023/04/22 00:06:16;;;;;;;0.43;0.35;;;;;;;19.20;40.58;100714.19;16107911;19;129694;-40
2023/04/22 00:11:38;;;;;;;0.75;0.50;;;;;;;19.17;40.61;100714.69;16122146;19;129391;-41
2023/04/22 00:17:00;;;;;;;0.55;0.40;;;;;;;19.16;40.85;100718.56;16125031;19;131832;-41
2023/04/22 00:22:22;;;;;;;0.80;0.50;;;;;;;19.14;40.98;100710.47;16123839;19;131782;-41
2023/04/22 00:27:44;;;;;;;1.55;0.60;;;;;;;19.11;40.96;100710.16;16124619;19;132011;-41
2023/04/22 00:33:06;;;;;;;1.05;0.80;;;;;;;19.09;40.77;100704.88;16123674;19;130633;-40
2023/04/22 00:38:28;;;;;;;8.80;1.30;;;;;;;19.04;40.77;100705.66;16120686;19;130114;-43
2023/04/22 00:43:52;;;;;;;1.73;1.17;;;;;;;19.00;39.78;100701.69;16115016;19;129266;-40
2023/04/22 00:49:14;;;;;;;0.90;0.80;;;;;;;18.98;40.22;100695.56;16116283;19;129776;-40
2023/04/22 00:54:36;;;;;;;4.85;1.10;;;;;;;18.95;40.10;100698.84;16116032;19;132714;-41
2023/04/22 00:59:58;;;;;;;2.33;1.10;;;;;;;18.94;39.91;100694.41;16118378;19;131882;-40
2023/04/22 01:05:20;;;;;;;1.20;1.05;;;;;;;;;;16116790;19;133949;-40
2023/04/22 01:10:42;;;;;;;2.10;1.10;;;;;;;18.90;39.87;100693.22;16111989;19;129574;-39
2023/04/22 01:16:07;;;;;;;1.38;0.93;;;;;;;18.90;39.91;100698.78;16118879;19;129484;-40
2023/04/22 01:21:32;;;;;;;1.15;0.80;;;;;;;18.88;39.98;100700.94;16119157;19;129912;-39
2023/04/22 01:26:54;;;;;;;1.77;0.93;;;;;;;18.86;40.28;100701.22;16119036;19;130115;-39
2023/04/22 01:32:16;;;;;;;2.38;0.90;;;;;;;18.87;40.21;100696.50;16122132;19;130746;-40
2023/04/22 01:37:38;;;;;;;0.80;0.70;;;;;;;18.84;39.99;100706.16;16120259;19;129311;-41
2023/04/22 01:43:01;;;;;;;1.65;1.00;;;;;;;18.84;40.33;100685.91;16121947;19;131613;-39
2023/04/22 01:48:23;;;;;;;1.25;0.80;;;;;;;18.84;40.47;100680.38;16117324;19;130648;-39
2023/04/22 01:53:47;;;;;;;1.50;0.80;;;;;;;18.81;40.49;100676.19;16123941;19;129391;-39
2023/04/22 01:59:08;;;;;;;1.13;0.95;;;;;;;18.79;40.13;100683.91;16118217;19;129644;-39
2023/04/22 02:04:30;;;;;;;1.30;0.82;;;;;;;18.77;40.50;100678.63;16121623;19;130529;-39
2023/04/22 02:09:52;;;;;;;1.98;0.55;;;;;;;18.77;40.59;100677.78;16118817;19;130861;-40
2023/04/22 02:15:14;;;;;;;1.45;0.70;;;;;;;18.75;40.58;100680.81;16117681;19;130362;-39
2023/04/22 02:20:36;;;;;;;1.60;0.70;;;;;;;18.74;40.21;100668.03;16116422;19;129763;-40
2023/04/22 02:25:58;;;;;;;1.58;0.63;;;;;;;18.72;40.24;100675.75;16116410;19;131305;-39
2023/04/22 02:31:20;;;;;;;0.77;0.52;;;;;;;18.72;40.58;100670.22;16116253;19;131662;-40
2023/04/22 02:36:42;;;;;;;1.20;0.55;;;;;;;18.70;40.60;100672.44;16116184;19;129746;-39
2023/04/22 02:42:04;;;;;;;1.38;0.60;;;;;;;18.70;40.61;100660.50;16120373;19;129787;-39
2023/04/22 02:47:25;;;;;;;1.00;0.55;;;;;;;18.69;40.32;100664.34;16116480;19;133914;-40
2023/04/22 02:52:47;;;;;;;0.60;0.40;;;;;;;18.67;40.61;100659.06;16117255;19;129374;-39
2023/04/22 02:58:09;;;;;;;0.68;0.47;;;;;;;18.67;40.75;100656.31;16115658;19;130985;-39
2023/04/22 03:03:31;;;;;;;0.70;0.50;;;;;;;18.67;40.79;100636.06;16109600;19;131349;-39
2023/04/22 03:08:53;;;;;;;0.60;0.60;;;;;;;18.64;40.43;100636.59;16112301;19;129592;-39
2023/04/22 03:14:15;;;;;;;0.55;0.55;;;;;;;18.63;40.46;100621.03;16114360;19;129107;-40
2023/04/22 03:19:37;;;;;;;0.80;0.50;;;;;;;18.61;40.78;100618.50;16115086;19;130430;-39
2023/04/22 03:25:00;;;;;;;0.63;0.45;;;;;;;18.59;40.59;100606.84;16111179;19;129716;-39
2023/04/22 03:30:22;;;;;;;1.40;0.50;;;;;;;18.57;40.74;100604.34;16114284;19;129661;-39
2023/04/22 03:35:47;;;;;;;0.90;0.50;;;;;;;18.58;40.77;100607.97;16116441;19;130338;-40
2023/04/22 03:41:09;;;;;;;0.73;0.50;;;;;;;18.56;40.51;100593.53;16109513;19;131099;-40
2023/04/22 03:46:31;;;;;;;0.60;0.50;;;;;;;18.56;40.56;100594.34;16123937;19;129398;-39
2023/04/22 03:51:53;;;;;;;1.10;0.70;;;;;;;18.55;40.43;100589.06;16124404;19;129884;-40
2023/04/22 03:57:15;;;;;;;0.80;0.60;;;;;;;18.52;40.30;100589.56;16126645;19;129374;-39
2023/04/22 04:02:36;;;;;;;0.50;0.50;;;;;;;18.51;40.78;100587.88;16128097;19;129450;-40
2023/04/22 04:07:58;;;;;;;0.60;0.60;;;;;;;18.50;40.35;100569.59;16127188;19;129915;-39
2023/04/22 04:13:20;;;;;;;1.38;0.68;;;;;;;18.48;40.44;100580.94;16127868;19;134045;-39
2023/04/22 04:18:42;;;;;;;0.70;0.70;;;;;;;18.46;40.33;100583.94;16120109;19;131676;-39
2023/04/22 04:24:05;;;;;;;1.00;0.60;;;;;;;18.45;40.65;100576.75;16127910;19;132198;-40
2023/04/22 04:29:27;;;;;;;0.60;0.60;;;;;;;18.45;40.31;100573.97;16124441;19;129352;-39
2023/04/22 04:34:49;;;;;;;0.70;0.50;;;;;;;18.44;40.50;100585.28;16117837;19;131691;-40
2023/04/22 04:40:11;;;;;;;0.63;0.50;;;;;;;18.43;40.25;100583.59;16120885;19;131052;-41
2023/04/22 04:45:35;;;;;;;0.30;0.30;;;;;;;18.44;40.65;100579.75;16121242;19;129237;-39
2023/04/22 04:50:57;;;;;;;0.95;0.50;;;;;;;18.44;40.34;100579.75;16123527;19;130130;-40
2023/04/22 04:56:19;;;;;;;2.00;0.60;;;;;;;18.43;40.24;100578.06;16120180;19;131000;-39
2023/04/22 05:01:41;;;;;;;1.35;0.80;;;;;;;18.41;40.46;100577.47;16126048;19;129983;-39
2023/04/22 05:07:04;;;;;;;0.63;0.57;;;;;;;18.40;40.12;100576.66;16124780;19;131100;-38
2023/04/22 05:12:26;;;;;;;1.10;0.98;;;;;;;18.39;40.34;100577.75;16117374;19;131415;-39
2023/04/22 05:17:48;;;;;;;1.35;1.05;;;;;;;18.37;40.29;100574.34;16122986;19;129619;-40
2023/04/22 05:23:09;;;;;;;1.40;1.15;;;;;;;18.36;40.34;100567.13;16121956;19;130397;-39
2023/04/22 05:28:31;;;;;;;0.80;0.80;;;;;;;18.34;40.15;100555.47;16118394;19;130737;-39
2023/04/22 05:33:53;;;;;;;1.20;0.60;;;;;;;18.33;40.45;100567.66;16117890;19;131163;-39
2023/04/22 05:39:16;;;;;;;1.13;0.70;;;;;;;18.31;40.29;100569.84;16121043;19;129754;-40
2023/04/22 05:44:38;;;;;;;0.80;0.73;;;;;;;18.34;40.45;100563.78;16119585;19;129608;-39
2023/04/22 05:49:59;;;;;;;0.65;0.65;;;;;;;18.52;40.56;100564.63;16120366;19;131387;-40
2023/04/22 05:55:21;;;;;;;1.60;0.80;;;;;;;18.82;40.17;100566.19;16121121;19;130162;-40
2023/04/22 06:00:43;;;;;;;0.80;0.70;;;;;;;19.07;39.84;100555.41;16119450;19;129395;-40
2023/04/22 06:06:05;;;;;;;1.45;0.80;;;;;;;19.26;39.22;100538.47;16119257;19;133780;-40
2023/04/22 06:11:27;;;;;;;1.20;0.73;;;;;;;19.43;39.33;100552.22;16119803;19;130068;-41
2023/04/22 06:16:51;;;;;;;1.00;0.50;;;;;;;19.55;39.37;100571.53;16120601;19;129592;-40
2023/04/22 06:22:13;;;;;;;0.88;0.50;;;;;;;19.64;39.17;100581.03;16117659;19;130727;-40
2023/04/22 06:27:36;;;;;;;0.50;0.40;;;;;;;19.71;39.01;100563.31;16117964;19;130279;-40
2023/04/22 06:32:58;;;;;;;1.48;0.57;;;;;;;19.74;39.17;100548.94;16115619;19;130006;-41
2023/04/22 06:38:20;;;;;;;0.55;0.32;;;;;;;19.77;39.04;100540.91;16117231;19;133728;-40
2023/04/22 06:43:42;;;;;;;3.05;0.40;;;;;;;19.80;39.26;100528.47;16119597;19;129708;-40
2023/04/22 06:49:04;;;;;;;2.28;0.50;;;;;;;19.78;39.21;100559.25;16117581;19;131435;-41
2023/04/22 06:54:26;;;;;;;0.40;0.40;;;;;;;19.77;39.37;100556.75;16117977;19;129154;-42
2023/04/22 06:59:48;;;;;;;0.52;0.50;;;;;;;19.75;39.47;100539.50;16115468;19;130472;-41
2023/04/22 07:05:10;;;;;;;0.60;0.50;;;;;;;19.75;39.46;100536.72;16117221;19;130548;-40
2023/04/22 07:10:32;;;;;;;2.35;0.50;;;;;;;19.76;39.37;100525.34;16116752;19;131115;-41
2023/04/22 07:15:54;;;;;;;0.30;0.25;;;;;;;19.76;39.25;100539.22;16111226;19;130265;-40
2023/04/22 07:21:16;;;;;;;2.05;0.55;;;;;;;19.77;39.00;100538.13;16111050;19;131479;-40
2023/04/22 07:26:40;;;;;;;0.60;0.43;;;;;;;19.79;39.20;100524.00;16111173;19;129958;-40
2023/04/22 07:32:02;;;;;;;0.60;0.40;;;;;;;19.73;39.45;100522.28;16113267;19;129830;-40
2023/04/22 07:37:24;;;;;;;0.65;0.43;;;;;;;19.70;39.39;100523.66;16113302;19;129149;-40
2023/04/22 07:42:46;;;;;;;1.27;0.40;;;;;;;19.65;39.10;100516.13;16108957;19;129038;-41
2023/04/22 07:48:08;;;;;;;0.60;0.57;;;;;;;19.64;39.13;100510.81;16108003;19;131017;-41
2023/04/22 07:53:30;;;;;;;1.23;0.60;;;;;;;19.64;39.09;100500.56;16110771;19;130261;-41
2023/04/22 07:58:51;;;;;;;1.88;0.68;;;;;;;19.65;39.15;100493.06;16109357;19;129496;-40
2023/04/22 08:04:13;;;;;;;0.90;0.57;;;;;;;19.73;39.00;100475.94;16110758;19;130625;-40
2023/04/22 08:09:36;;;;;;;2.85;0.60;;;;;;;19.83;39.19;100459.38;16108349;19;131185;-40
2023/04/22 08:14:58;;;;;;;1.13;0.50;;;;;;;19.94;38.51;100442.78;16109956;19;130086;-42
2023/04/22 08:20:20;;;;;;;2.05;0.70;;;;;;;20.03;38.68;100454.25;16110230;19;129684;-40
2023/04/22 08:25:42;;;;;;;0.60;0.50;;;;;;;20.13;38.47;100452.38;16113028;19;129924;-40
2023/04/22 08:31:05;;;;;;;1.35;0.68;;;;;;;20.24;38.08;100458.84;16119228;19;130533;-41
2023/04/22 08:36:27;;;;;;;1.33;0.70;;;;;;;20.38;37.97;100497.25;16127419;19;129838;-40
2023/04/22 08:41:50;;;;;;;2.08;0.70;;;;;;;20.49;38.19;100496.19;16126889;19;129934;-41
2023/04/22 08:47:14;;;;;;;1.95;0.52;;;;;;;20.62;38.04;100488.47;16128211;19;130083;-40
2023/04/22 08:52:36;;;;;;;1.83;0.70;;;;;;;20.69;37.61;100500.16;16124634;19;130017;-41
2023/04/22 08:58:02;;;;;;;1.70;0.75;;;;;;;20.74;37.65;100492.69;16123347;19;129880;-41
2023/04/22 09:03:24;;;;;;;;;;;;;;;20.69;37.90;100489.06;16124491;19;128979;-43
2023/04/22 09:08:47;;;;;;;2.28;0.70;;;;;;;20.67;37.68;100486.56;16121485;19;130059;-43
2023/04/22 09:14:08;;;;;;;1.77;0.75;;;;;;;20.59;37.52;100482.34;16125306;19;131117;-40
2023/04/22 09:19:30;;;;;;;3.13;0.80;;;;;;;20.52;38.05;100476.22;16125567;19;130977;-41
2023/04/22 09:24:52;;;;;;;1.30;0.98;;;;;;;20.48;38.02;100480.63;16120939;19;129142;-42
2023/04/22 09:30:17;;;;;;;2.53;1.10;;;;;;;20.44;38.06;100474.78;16124283;19;130370;-43
2023/04/22 09:35:41;;;;;;;4.47;1.15;;;;;;;20.39;37.98;100474.75;16121667;19;129296;-41
2023/04/22 09:41:09;;;;;;;2.67;1.10;;;;;;;20.33;37.84;100469.44;16115420;19;130682;-42
2023/04/22 09:46:32;;;;;;;2.78;1.05;;;;;;;20.24;37.88;100460.78;16120919;19;129161;-41
2023/04/22 09:51:56;;;;;;;2.35;1.23;;;;;;;20.16;38.34;100453.78;16120976;19;129704;-40
2023/04/22 09:57:20;;;;;;;1.77;1.08;;;;;;;20.06;38.42;100468.44;16121181;19;129411;-41
2023/04/22 10:02:41;;;;;;;1.90;0.90;;;;;;;19.98;38.62;100463.38;16116594;19;129963;-41
2023/04/22 10:08:05;;;;;;;2.58;1.30;;;;;;;19.89;38.71;100465.78;16119874;19;130780;-41
2023/04/22 10:13:27;;;;;;;3.30;1.05;;;;;;;19.84;38.58;100496.28;16116512;19;129614;-40
2023/04/22 10:18:50;;;;;;;2.35;1.10;;;;;;;19.78;38.88;100497.34;16120979;19;129663;-40
2023/04/22 10:24:16;;;;;;;1.45;1.00;;;;;;;19.74;39.16;100485.09;16119655;19;129277;-40
2023/04/22 10:29:41;;;;;;;2.63;1.23;;;;;;;19.68;38.94;100482.28;16116688;19;129646;-40
2023/04/22 10:35:11;;;;;;;2.67;1.30;;;;;;;19.64;39.09;100475.59;16118738;19;131346;-47
2023/04/22 10:40:33;;;;;;;1.98;1.13;;;;;;;19.59;38.69;100486.63;16119540;19;130660;-40
2023/04/22 10:45:55;;;;;;;4.38;1.40;;;;;;;19.57;38.98;100483.28;16118532;19;132468;-40
2023/04/22 10:51:39;;;;;;;2.97;1.63;;;;;;;19.58;38.84;100493.28;16120515;19;129443;-48
2023/04/22 10:57:03;;;;;;;2.70;1.48;;;;;;;19.54;39.08;100497.69;16116574;19;129705;-47
2023/04/22 11:02:25;;;;;;;3.17;1.73;;;;;;;19.53;39.33;100496.03;16118118;19;129437;-49
2023/04/22 11:07:53;;;;;;;5.00;1.60;;;;;;;19.55;39.43;100493.81;16115139;19;129640;-43
2023/04/22 11:13:20;;;;;;;3.28;1.80;;;;;;;19.55;38.92;100493.81;16114624;19;129636;-46
2023/04/22 11:18:45;;;;;;;2.42;1.50;;;;;;;19.55;39.40;100490.19;16115908;19;130104;-46
2023/04/22 11:24:08;;;;;;;;;;;;;;;19.52;39.56;100483.25;16115564;19;129579;-44
2023/04/22 11:29:30;;;;;;;3.03;1.33;;;;;;;19.52;39.39;100500.72;16114340;19;131105;-46
2023/04/22 11:34:52;;;;;;;4.13;1.40;;;;;;;19.52;39.44;100491.56;16112008;19;129415;-47
2023/04/22 11:40:17;;;;;;;1.73;1.30;;;;;;;19.52;39.25;100494.34;16113361;19;129623;-45
2023/04/22 11:45:54;;;;;;;2.25;1.13;;;;;;;19.53;39.43;100490.47;16110838;19;130071;-41
2023/04/22 11:51:16;;;;;;;3.15;1.52;;;;;;;19.50;39.23;100485.44;16116446;19;129864;-45
2023/04/22 11:56:38;;;;;;;1.95;1.10;;;;;;;19.48;39.08;100501.50;16111238;19;130634;-47
2023/04/22 12:02:04;;;;;;;2.03;1.20;;;;;;;19.47;39.52;100491.50;16111985;19;129373;-43
2023/04/22 12:07:26;;;;;;;2.70;1.17;;;;;;;19.45;39.26;100494.56;16121531;19;131133;-45
2023/04/22 12:12:48;;;;;;;4.20;1.33;;;;;;;19.43;39.23;100490.38;16126320;19;129827;-44
2023/04/22 12:18:11;;;;;;;2.60;1.23;;;;;;;19.43;38.99;100498.69;16126262;19;132079;-46
2023/04/22 12:24:07;;;;;;;3.80;1.30;;;;;;;19.41;39.56;100514.75;16121293;19;130774;-42
2023/04/22 12:29:32;;;;;;;3.50;1.40;;;;;;;19.38;39.41;100518.91;16122798;19;129854;-41
2023/04/22 12:34:55;;;;;;;;;;;;;;;19.33;39.82;100511.34;16122369;19;129597;-44
2023/04/22 12:40:16;;;;;;;2.13;1.23;;;;;;;19.40;39.33;100518.63;16118094;19;130509;-54
2023/04/22 12:45:39;;;;;;;1.70;1.10;;;;;;;19.49;39.44;100514.28;16122528;19;130437;-42
2023/04/22 12:51:01;;;;;;;2.53;1.23;;;;;;;19.59;39.20;100514.38;16123796;19;129713;-42
2023/04/22 12:56:23;;;;;;;2.00;1.35;;;;;;;19.72;39.38;100509.50;16119633;19;130668;-42
2023/04/22 13:01:45;;;;;;;2.10;0.98;;;;;;;19.80;39.14;100504.31;16120847;19;130606;-40
2023/04/22 13:07:07;;;;;;;3.00;1.10;;;;;;;19.91;38.81;100509.94;16117809;19;129780;-45
2023/04/22 13:12:29;;;;;;;2.90;1.30;;;;;;;19.98;38.49;100513.34;16121665;19;130393;-41
2023/04/22 13:17:51;;;;;;;3.25;1.17;;;;;;;20.03;38.54;100515.34;16119844;19;129758;-40
2023/04/22 13:23:14;;;;;;;2.28;1.10;;;;;;;20.04;38.72;100505.91;16118352;19;130396;-41
2023/04/22 13:28:36;;;;;;;1.63;0.90;;;;;;;20.02;38.93;100522.81;16117330;19;129812;-42
2023/04/22 13:33:58;;;;;;;4.78;1.10;;;;;;;20.01;38.94;100507.25;16118987;19;129818;-40
2023/04/22 13:39:20;;;;;;;1.75;1.00;;;;;;;19.99;38.67;100510.31;16117566;19;129738;-41
2023/04/22 13:44:41;;;;;;;2.63;1.10;;;;;;;19.99;38.67;100499.22;16120820;19;129735;-40
2023/04/22 13:50:05;;;;;;;2.22;1.20;;;;;;;19.96;38.85;100499.72;16114634;19;131020;-43
2023/04/22 13:55:27;;;;;;;2.13;1.25;;;;;;;19.94;38.93;100499.13;16112123;19;131149;-41
2023/04/22 14:00:49;;;;;;;2.63;0.90;;;;;;;19.92;38.67;100504.13;16118295;19;131381;-41
2023/04/22 14:06:11;;;;;;;1.30;0.90;;;;;;;19.90;38.72;100498.00;16118178;19;129939;-42
2023/04/22 14:11:33;;;;;;;1.05;0.90;;;;;;;19.90;38.64;100488.81;16116826;19;129576;-40
2023/04/22 14:16:55;;;;;;;1.48;0.95;;;;;;;19.89;38.90;100495.47;16116200;19;130610;-42
2023/04/22 14:22:17;;;;;;;1.48;1.25;;;;;;;19.89;38.79;100498.25;16116870;19;129433;-43
2023/04/22 14:27:39;;;;;;;2.78;1.10;;;;;;;19.87;38.52;100498.53;16111935;19;130979;-40
2023/04/22 14:33:04;;;;;;;1.85;1.00;;;;;;;19.88;38.94;100497.44;16113821;19;130605;-42
2023/04/22 14:38:28;;;;;;;1.42;1.10;;;;;;;19.86;38.92;100504.34;16114767;19;130414;-42
2023/04/22 14:43:50;;;;;;;1.55;0.75;;;;;;;19.85;38.78;100497.94;16117511;19;129381;-40
2023/04/22 14:49:12;;;;;;;2.42;0.80;;;;;;;19.84;38.51;100518.47;16107417;19;129915;-43
2023/04/22 14:54:34;;;;;;;1.10;0.80;;;;;;;19.84;38.67;100515.72;16112387;19;130793;-41
2023/04/22 14:59:55;;;;;;;1.20;0.90;;;;;;;19.83;38.57;100527.91;16110611;19;130589;-43
2023/04/22 15:05:17;;;;;;;2.28;1.10;;;;;;;19.83;38.54;100534.31;16113715;19;129608;-41
2023/04/22 15:10:39;;;;;;;1.65;1.00;;;;;;;19.82;38.92;100542.88;16110365;19;129678;-47
2023/04/22 15:16:01;;;;;;;1.67;1.10;;;;;;;19.81;38.94;100547.63;16111334;19;131248;-42
2023/04/22 15:21:23;;;;;;;1.40;1.10;;;;;;;19.81;38.51;100560.69;16109479;19;129339;-43
2023/04/22 15:26:46;;;;;;;1.40;1.10;;;;;;;19.82;38.78;100565.09;16110576;19;134598;-43
2023/04/22 15:32:08;;;;;;;2.50;1.00;;;;;;;19.82;38.70;100573.41;16110191;19;129973;-42
2023/04/22 15:37:30;;;;;;;1.33;0.93;;;;;;;19.81;38.88;100580.94;16111806;19;130913;-40
2023/04/22 15:42:52;;;;;;;2.33;0.80;;;;;;;19.82;38.91;100592.84;16125967;19;129299;-40
2023/04/22 15:48:14;;;;;;;1.52;1.23;;;;;;;19.83;38.53;100578.72;16126680;19;130065;-42
2023/04/22 15:53:36;;;;;;;2.78;1.35;;;;;;;19.87;38.56;100567.09;16125185;19;129143;-40
2023/04/22 15:58:58;;;;;;;1.48;1.10;;;;;;;19.89;38.67;100565.72;16118518;19;130946;-41
2023/04/22 16:04:20;;;;;;;1.30;0.93;;;;;;;19.90;38.50;100578.53;16121863;19;130406;-41
2023/04/22 16:09:43;;;;;;;1.63;1.25;;;;;;;19.90;38.60;100583.22;16123248;19;130949;-40
2023/04/22 16:15:05;;;;;;;1.10;1.00;;;;;;;19.89;38.75;100596.28;16122961;19;131083;-43
2023/04/22 16:20:28;;;;;;;1.30;1.00;;;;;;;19.89;38.29;100604.59;16114506;19;131109;-42
2023/04/22 16:25:50;;;;;;;1.52;0.90;;;;;;;19.88;38.73;100608.47;16121636;19;130491;-41
2023/04/22 16:31:12;;;;;;;1.52;0.93;;;;;;;19.88;38.34;100619.56;16122514;19;129662;-41
2023/04/22 16:36:34;;;;;;;1.52;1.13;;;;;;;19.89;38.53;100626.81;16121393;19;129551;-40
2023/04/22 16:41:57;;;;;;;1.70;0.80;;;;;;;20.05;38.11;100629.78;16116094;19;131349;-42
2023/04/22 16:47:19;;;;;;;0.77;0.77;;;;;;;20.20;37.95;100632.66;16121856;19;129612;-44
2023/04/22 16:52:41;;;;;;;0.80;0.80;;;;;;;20.33;37.79;100636.09;16118998;19;129337;-40
2023/04/22 16:58:04;;;;;;;5.18;1.35;;;;;;;20.35;37.95;100629.22;16126771;19;130352;-43
2023/04/22 17:03:26;;;;;;;2.85;1.30;;;;;;;20.36;37.92;100641.13;16124373;19;130056;-41
2023/04/22 17:08:48;;;;;;;7.32;1.50;;;;;;;20.32;37.88;100651.09;16122928;19;129537;-41
2023/04/22 17:14:10;;;;;;;3.33;1.65;;;;;;;20.27;37.70;100658.31;16124619;19;129963;-43
2023/04/22 17:19:32;;;;;;;2.85;1.48;;;;;;;20.21;38.35;100662.13;16121785;19;129456;-42
2023/04/22 17:24:56;;;;;;;7.40;1.70;;;;;;;20.14;38.31;100661.50;16118752;19;131385;-40
2023/04/22 17:30:18;;;;;;;6.18;1.92;;;;;;;20.08;38.38;100654.22;16120659;19;129467;-41
2023/04/22 17:35:40;;;;;;;5.65;2.10;;;;;;;20.01;38.22;100667.50;16117481;19;131417;-41
2023/04/22 17:41:02;;;;;;;3.90;1.92;;;;;;;19.94;38.06;100668.50;16120487;19;130913;-41
2023/04/22 17:46:24;;;;;;;5.63;2.40;;;;;;;19.90;38.37;100666.50;16123010;19;129130;-40
2023/04/22 17:51:46;;;;;;;6.38;3.63;;;;;;;19.88;38.27;100675.09;16117682;19;130965;-41
2023/04/22 17:57:10;;;;;;;12.18;5.45;;;;;;;19.88;38.59;100680.66;16118151;19;130663;-42
2023/04/22 18:02:32;;;;;;;21.73;5.35;;;;;;;19.89;39.21;100676.78;16119222;19;130276;-41
2023/04/22 18:08:01;;;;;;;14.55;4.25;;;;;;;19.94;39.37;100676.81;16117278;19;129498;-41
2023/04/22 18:13:23;;;;;;;24.70;5.20;;;;;;;20.03;38.93;100687.50;16121006;19;130570;-41
2023/04/22 18:18:45;;;;;;;13.98;4.80;;;;;;;20.05;38.86;100683.34;16117812;19;129179;-42
2023/04/22 18:24:11;;;;;;;11.57;3.77;;;;;;;20.08;38.88;100690.31;16118891;19;130199;-41
2023/04/22 18:29:32;;;;;;;17.40;3.70;;;;;;;20.13;39.39;100687.59;16115302;19;131718;-43
2023/04/22 18:34:54;;;;;;;10.15;3.58;;;;;;;20.17;39.14;100705.44;16117172;19;130328;-41
2023/04/22 18:40:16;;;;;;;10.63;3.38;;;;;;;20.19;38.86;100714.31;16115866;19;130709;-41
2023/04/22 18:45:38;;;;;;;10.68;3.38;;;;;;;20.22;39.39;100726.88;16117786;19;130515;-44
2023/04/22 18:51:00;;;;;;;8.65;2.90;;;;;;;20.20;39.44;100716.00;16116954;19;134483;-46
2023/04/22 18:56:22;;;;;;;9.75;3.42;;;;;;;20.23;39.26;100720.22;16116227;19;129601;-41
2023/04/22 19:01:44;;;;;;;11.68;3.60;;;;;;;20.22;39.69;100722.13;16118422;19;129427;-42
2023/04/22 19:07:06;;;;;;;15.93;4.13;;;;;;;20.24;39.52;100733.81;16117620;19;131199;-42
2023/04/22 19:12:28;;;;;;;6.82;3.03;;;;;;;20.35;39.37;100739.47;16118427;19;130518;-43
2023/04/22 19:17:50;;;;;;;17.30;3.42;;;;;;;20.49;39.17;100735.19;16115852;19;129639;-43
2023/04/22 19:23:12;;;;;;;11.90;2.65;;;;;;;20.60;39.29;100744.47;16116373;19;129606;-41
2023/04/22 19:28:35;;;;;;;12.60;2.70;;;;;;;20.69;38.79;100739.22;16115231;19;130640;-44
2023/04/22 19:33:58;;;;;;;5.80;2.05;;;;;;;20.79;38.91;100733.81;16117015;19;129700;-41
2023/04/22 19:39:20;;;;;;;12.82;2.30;;;;;;;20.90;38.75;100729.16;16114163;19;131175;-47
2023/04/22 19:44:45;;;;;;;11.57;2.50;;;;;;;21.01;38.79;100727.28;16114318;19;129422;-42
2023/04/22 19:50:08;;;;;;;6.00;2.40;;;;;;;21.11;38.69;100724.56;16112262;19;129243;-43
2023/04/22 19:55:31;;;;;;;6.15;2.35;;;;;;;21.19;38.51;100718.50;16114194;19;130019;-41
2023/04/22 20:00:53;;;;;;;15.13;2.33;;;;;;;21.19;38.19;100720.44;16110940;19;130327;-43
2023/04/22 20:06:15;;;;;;;9.38;2.40;;;;;;;21.17;38.27;100729.03;16105856;19;130183;-45
2023/04/22 20:11:38;;;;;;;10.75;2.45;;;;;;;21.14;38.07;100732.38;16111352;19;129315;-42
2023/04/22 20:17:00;;;;;;;10.20;2.40;;;;;;;21.12;38.13;100737.38;16110862;19;129805;-43
2023/04/22 20:22:26;;;;;;;9.65;2.05;;;;;;;21.09;38.04;100740.69;16111953;19;129695;-42
2023/04/22 20:27:48;;;;;;;10.10;2.38;;;;;;;21.02;38.48;100749.25;16120870;19;129252;-43
2023/04/22 20:33:13;;;;;;;5.47;1.90;;;;;;;20.93;38.12;100750.88;16126484;19;130249;-43
2023/04/22 20:38:38;;;;;;;12.45;2.13;;;;;;;20.84;38.57;100750.50;16126696;19;129663;-42
2023/04/22 20:44:00;;;;;;;9.63;2.25;;;;;;;20.74;38.66;100736.50;16123008;19;130272;-43
2023/04/22 20:49:22;;;;;;;9.80;2.15;;;;;;;20.65;38.70;100743.66;16125008;19;130631;-44
2023/04/22 20:54:44;;;;;;;6.13;1.90;;;;;;;20.56;38.60;100729.41;16124427;19;129429;-43
2023/04/22 21:00:07;;;;;;;5.93;2.08;;;;;;;20.49;38.43;100723.25;16122441;19;129565;-43
2023/04/22 21:05:29;;;;;;;8.10;1.73;;;;;;;20.41;38.95;100727.31;16125712;19;130379;-48
2023/04/22 21:10:53;;;;;;;4.25;1.45;;;;;;;20.33;38.87;100719.44;16123744;19;129620;-46
2023/04/22 21:16:18;;;;;;;2.65;1.70;;;;;;;20.28;39.02;100718.31;16122919;19;131016;-50
2023/04/22 21:21:40;;;;;;;6.63;1.63;;;;;;;20.22;38.57;100711.03;16124325;19;131074;-50
2023/04/22 21:27:02;;;;;;;3.30;1.65;;;;;;;20.16;38.80;100705.69;16122584;19;129182;-43
2023/04/22 21:32:25;;;;;;;3.60;1.65;;;;;;;20.11;39.04;100692.56;16120154;19;129735;-42
2023/04/22 21:37:47;;;;;;;4.13;1.55;;;;;;;20.06;38.86;100704.47;16120862;19;131749;-42
2023/04/22 21:43:09;;;;;;;4.65;1.35;;;;;;;20.02;38.74;100702.50;16120553;19;131209;-42
2023/04/22 21:48:31;;;;;;;3.40;1.80;;;;;;;19.96;38.92;100707.94;16121234;19;129632;-41
2023/04/22 21:53:53;;;;;;;3.40;1.40;;;;;;;19.94;39.10;100717.63;16119889;19;131993;-43
2023/04/22 21:59:15;;;;;;;3.25;1.52;;;;;;;19.88;38.80;100722.28;16120607;19;129765;-42
2023/04/22 22:04:38;;;;;;;2.30;1.20;;;;;;;19.84;39.25;100723.91;16120616;19;129313;-42
2023/04/22 22:10:00;;;;;;;2.35;1.10;;;;;;;19.80;39.05;100723.59;16121863;19;130167;-43
2023/04/22 22:15:22;;;;;;;4.25;1.23;;;;;;;19.77;38.72;100728.81;16119257;19;129662;-44
2023/04/22 22:20:44;;;;;;;2.17;1.20;;;;;;;19.76;38.72;100727.16;16119462;19;129968;-43
2023/04/22 22:26:07;;;;;;;1.98;1.10;;;;;;;19.71;38.96;100718.75;16118831;19;129952;-44
2023/04/22 22:31:29;;;;;;;1.65;1.10;;;;;;;19.68;39.02;100709.88;16115608;19;131049;-42
2023/04/22 22:36:50;;;;;;;1.65;1.20;;;;;;;19.65;39.03;100709.53;16115856;19;131408;-41
2023/04/22 22:42:13;;;;;;;1.52;1.13;;;;;;;19.61;38.86;100703.66;16115313;19;129808;-44
2023/04/22 22:47:35;;;;;;;2.25;1.10;;;;;;;19.60;39.03;100707.53;16113129;19;128969;-43
2023/04/22 22:52:57;;;;;;;1.40;1.25;;;;;;;19.57;39.04;100699.72;16115770;19;129915;-43
2023/04/22 22:58:19;;;;;;;1.60;1.08;;;;;;;19.55;38.76;100698.28;16116762;19;130455;-42
2023/04/22 23:03:41;;;;;;;2.35;1.00;;;;;;;19.52;39.14;100694.13;16116320;19;129249;-46
2023/04/22 23:09:03;;;;;;;3.45;1.35;;;;;;;19.51;38.73;100693.25;16112245;19;129310;-43
2023/04/22 23:14:27;;;;;;;1.95;1.25;;;;;;;19.50;39.12;100685.19;16116039;19;133597;-44
2023/04/22 23:19:50;;;;;;;1.77;1.05;;;;;;;19.46;38.89;100681.25;16113302;19;129881;-42
2023/04/22 23:25:13;;;;;;;1.65;0.88;;;;;;;19.44;39.17;100675.16;16110518;19;130743;-46
2023/04/22 23:30:35;;;;;;;1.77;1.20;;;;;;;19.41;38.76;100665.38;16114489;19;130129;-45
2023/04/22 23:35:59;;;;;;;1.02;0.70;;;;;;;19.41;38.96;100659.00;16113182;19;132875;-45
2023/04/22 23:41:21;;;;;;;1.30;1.00;;;;;;;19.38;38.89;100652.88;16111872;19;130346;-42
2023/04/22 23:46:43;;;;;;;1.00;0.88;;;;;;;19.36;38.94;100649.53;16112296;19;130329;-42
2023/04/22 23:52:06;;;;;;;1.25;1.02;;;;;;;19.33;38.91;100638.94;16113390;19;130391;-43
2023/04/22 23:57:28;;;;;;;1.45;1.00;;;;;;;19.32;38.77;100640.03;16111614;19;129801;-43
